createdAt,value
2022-12-11T00:04:16.255Z,50
2022-12-11T00:32:37.544Z,48
2022-12-11T01:00:39.425Z,52
2022-12-11T01:28:59.443Z,53
2022-12-11T01:57:13.055Z,53
2022-12-11T02:26:04.309Z,52
2022-12-11T02:54:49.350Z,41
2022-12-11T03:23:40.073Z,50
2022-12-11T03:52:46.443Z,50
2022-12-11T04:21:07.985Z,50
2022-12-11T04:50:00.582Z,52
2022-12-11T05:18:58.131Z,51
2022-12-11T05:47:56.858Z,53
2022-12-11T06:16:52.981Z,50
2022-12-11T06:45:12.300Z,51
2022-12-11T07:13:50.928Z,53
2022-12-11T07:42:46.626Z,52
2022-12-11T08:11:07.269Z,48
2022-12-11T08:40:06.718Z,46
2022-12-11T09:09:20.881Z,49
2022-12-11T09:37:42.977Z,44
2022-12-11T10:06:46.163Z,42
2022-12-11T10:35:37.266Z,46
2022-12-11T11:04:40.140Z,47
2022-12-11T11:33:24.235Z,48
2022-12-11T12:02:20.946Z,46
2022-12-11T12:31:16.632Z,44
2022-12-11T13:00:01.145Z,44
2022-12-11T13:28:53.736Z,47
2022-12-11T13:57:32.818Z,48
2022-12-11T14:26:27.196Z,44
2022-12-11T14:55:23.940Z,44
2022-12-11T15:23:41.623Z,44
2022-12-11T15:51:55.331Z,45
2022-12-11T16:20:23.800Z,50
2022-12-11T16:48:43.171Z,47
2022-12-11T17:17:00.896Z,47
2022-12-11T17:45:16.152Z,49
2022-12-11T18:13:30.478Z,50
2022-12-11T18:41:43.252Z,48
2022-12-11T19:09:56.758Z,52
2022-12-11T19:38:07.608Z,50
2022-12-11T20:06:22.027Z,53
2022-12-11T20:34:31.072Z,52
2022-12-11T21:02:43.973Z,50
2022-12-11T21:31:12.106Z,48
2022-12-11T21:59:15.941Z,47
2022-12-11T22:27:37.118Z,44
2022-12-11T22:55:39.487Z,41
2022-12-11T23:23:59.125Z,38
2022-12-11T23:52:06.990Z,41
